createdAt,value
2019-01-03T00:00:04.620Z,-2.1
2019-01-03T00:01:03.428Z,-2.1
2019-01-03T00:02:02.855Z,-2.1
2019-01-03T00:03:03.108Z,-2.1
2019-01-03T00:04:02.755Z,-2.1
2019-01-03T00:05:03.187Z,-2.1
2019-01-03T00:06:03.836Z,-2
2019-01-03T00:07:03.292Z,-2
2019-01-03T00:08:02.828Z,-1.9
2019-01-03T00:09:03.620Z,-1.9
2019-01-03T00:10:03.732Z,-1.9
2019-01-03T00:11:03.640Z,-1.8
2019-01-03T00:12:02.668Z,-1.9
2019-01-03T00:13:02.657Z,-1.9
2019-01-03T00:14:03.079Z,-1.9
2019-01-03T00:15:03.713Z,-1.8
2019-01-03T00:16:01.919Z,-1.8
2019-01-03T00:17:03.382Z,-1.8
2019-01-03T00:18:03.054Z,-1.8
2019-01-03T00:19:04.359Z,-1.8
2019-01-03T00:20:03.944Z,-1.8
2019-01-03T00:21:03.632Z,-1.8
2019-01-03T00:22:02.983Z,-1.8
2019-01-03T00:23:03.054Z,-1.8
2019-01-03T00:24:03.319Z,-1.8
2019-01-03T00:25:03.540Z,-1.8
2019-01-03T00:26:02.908Z,-1.7
2019-01-03T00:27:02.744Z,-1.7
2019-01-03T00:28:03.503Z,-1.7
2019-01-03T00:29:03.145Z,-1.7
2019-01-03T00:30:03.310Z,-1.7
2019-01-03T00:31:03.736Z,-1.7
2019-01-03T00:32:03.346Z,-1.8
2019-01-03T00:33:02.858Z,-1.8
2019-01-03T00:34:03.019Z,-1.7
2019-01-03T00:35:02.473Z,-1.7
2019-01-03T00:36:02.989Z,-1.7
2019-01-03T00:37:03.403Z,-1.8
2019-01-03T00:38:03.054Z,-1.7
2019-01-03T00:39:03.624Z,-1.8
2019-01-03T00:40:03.008Z,-1.8
2019-01-03T00:41:02.786Z,-1.8
2019-01-03T00:42:03.106Z,-1.8
2019-01-03T00:43:03.561Z,-1.8
2019-01-03T00:44:03.247Z,-1.8
2019-01-03T00:45:02.853Z,-1.8
2019-01-03T00:46:03.002Z,-1.8
2019-01-03T00:47:03.000Z,-1.8
2019-01-03T00:48:02.973Z,-1.8
2019-01-03T00:49:03.278Z,-1.8
2019-01-03T00:50:03.198Z,-1.9
2019-01-03T00:51:03.894Z,-1.9
2019-01-03T00:52:02.919Z,-1.9
2019-01-03T00:53:03.196Z,-1.9
2019-01-03T00:54:02.827Z,-1.9
2019-01-03T00:55:03.000Z,-1.8
2019-01-03T00:56:03.315Z,-1.8
2019-01-03T00:58:02.838Z,-1.8
2019-01-03T00:59:03.043Z,-1.8
2019-01-03T01:00:03.867Z,-1.8
2019-01-03T01:01:03.297Z,-1.8
2019-01-03T01:02:03.071Z,-1.7
2019-01-03T01:03:03.127Z,-1.7
2019-01-03T01:04:03.069Z,-1.7
2019-01-03T01:05:03.604Z,-1.7
2019-01-03T01:06:03.383Z,-1.8
2019-01-03T01:07:03.487Z,-1.8
2019-01-03T01:08:02.793Z,-1.8
2019-01-03T01:09:03.600Z,-1.8
2019-01-03T01:10:03.091Z,-1.8
2019-01-03T01:11:03.732Z,-1.8
2019-01-03T01:12:03.241Z,-1.8
2019-01-03T01:13:02.698Z,-1.8
2019-01-03T01:14:03.299Z,-1.8
2019-01-03T01:15:02.876Z,-1.8
2019-01-03T01:16:02.710Z,-1.8
2019-01-03T01:17:03.154Z,-1.8
2019-01-03T01:18:02.959Z,-1.8
2019-01-03T01:19:03.458Z,-1.8
2019-01-03T01:20:03.335Z,-1.8
2019-01-03T01:21:03.568Z,-1.8
2019-01-03T01:22:03.329Z,-1.8
2019-01-03T01:23:03.460Z,-1.8
2019-01-03T01:24:03.036Z,-1.8
2019-01-03T01:25:03.118Z,-1.8
2019-01-03T01:26:03.320Z,-1.8
2019-01-03T01:27:01.832Z,-1.8
2019-01-03T01:28:03.563Z,-1.8
2019-01-03T01:29:03.996Z,-1.8
2019-01-03T01:30:03.426Z,-1.8
2019-01-03T01:31:03.876Z,-1.8
2019-01-03T01:32:03.211Z,-1.8
2019-01-03T01:33:03.470Z,-1.8
2019-01-03T01:34:03.215Z,-1.8
2019-01-03T01:35:03.720Z,-1.7
2019-01-03T01:36:03.463Z,-1.8
2019-01-03T01:37:02.938Z,-1.8
2019-01-03T01:38:03.624Z,-1.8
2019-01-03T01:39:03.783Z,-1.8
2019-01-03T01:40:03.621Z,-1.8
2019-01-03T01:41:02.942Z,-1.9
2019-01-03T01:42:03.205Z,-1.9
2019-01-03T01:43:03.825Z,-1.9
2019-01-03T01:44:03.079Z,-1.9
2019-01-03T01:45:03.645Z,-1.9
2019-01-03T01:46:03.242Z,-1.9
2019-01-03T01:47:03.616Z,-1.9
2019-01-03T01:48:03.675Z,-1.9
2019-01-03T01:49:02.211Z,-1.9
2019-01-03T01:50:02.109Z,-1.9
2019-01-03T01:51:03.274Z,-1.9
2019-01-03T01:52:03.299Z,-1.9
2019-01-03T01:53:03.336Z,-2
2019-01-03T01:54:03.565Z,-2
2019-01-03T01:55:03.617Z,-2
2019-01-03T01:56:02.989Z,-2.1
2019-01-03T01:57:03.175Z,-2
2019-01-03T01:58:03.705Z,-2.1
2019-01-03T01:59:03.427Z,-2
2019-01-03T02:00:02.866Z,-2.1
2019-01-03T02:01:03.359Z,-2.1
2019-01-03T02:02:02.841Z,-2.1
2019-01-03T02:03:03.332Z,-2.1
2019-01-03T02:04:03.458Z,-2.1
2019-01-03T02:05:03.725Z,-2.1
2019-01-03T02:06:03.123Z,-2.1
2019-01-03T02:07:03.516Z,-2.1
2019-01-03T02:08:03.487Z,-2.1
2019-01-03T02:09:03.495Z,-2.1
2019-01-03T02:10:02.973Z,-2.1
2019-01-03T02:11:03.143Z,-2.1
2019-01-03T02:12:03.891Z,-2.1
2019-01-03T02:13:03.262Z,-2.1
2019-01-03T02:14:02.724Z,-2.1
2019-01-03T02:15:02.019Z,-2.1
2019-01-03T02:16:03.393Z,-2.1
2019-01-03T02:17:03.567Z,-2.1
2019-01-03T02:18:03.442Z,-2.1
2019-01-03T02:19:03.176Z,-2.1
2019-01-03T02:20:03.416Z,-2.2
2019-01-03T02:21:03.537Z,-2.1
2019-01-03T02:22:03.540Z,-2.2
2019-01-03T02:23:03.643Z,-2.2
2019-01-03T02:24:03.138Z,-2.2
2019-01-03T02:25:03.045Z,-2.1
2019-01-03T02:26:03.551Z,-2.1
2019-01-03T02:27:02.988Z,-2.1
2019-01-03T02:28:03.761Z,-2
2019-01-03T02:29:03.341Z,-2
2019-01-03T02:30:03.455Z,-2
2019-01-03T02:31:02.648Z,-2
2019-01-03T02:32:03.022Z,-2.1
2019-01-03T02:33:03.038Z,-2.1
2019-01-03T02:34:03.173Z,-2.1
2019-01-03T02:35:03.405Z,-2.1
2019-01-03T02:36:03.199Z,-2.1
2019-01-03T02:37:02.816Z,-2.1
2019-01-03T02:38:03.482Z,-2.1
2019-01-03T02:39:03.187Z,-2.1
2019-01-03T02:40:03.847Z,-2.1
2019-01-03T02:41:03.260Z,-2.2
2019-01-03T02:42:03.876Z,-2.2
2019-01-03T02:43:03.024Z,-2.2
2019-01-03T02:44:03.622Z,-2.2
2019-01-03T02:45:03.265Z,-2.2
2019-01-03T02:46:03.398Z,-2.1
2019-01-03T02:47:03.298Z,-2.1
2019-01-03T02:48:03.536Z,-2.1
2019-01-03T02:49:03.836Z,-2.1
2019-01-03T02:50:03.185Z,-2.1
2019-01-03T02:51:03.449Z,-2.1
2019-01-03T02:52:03.447Z,-2.1
2019-01-03T02:53:03.180Z,-2.1
2019-01-03T02:54:03.339Z,-2.1
2019-01-03T02:55:02.987Z,-2.1
2019-01-03T02:56:03.399Z,-2
2019-01-03T02:57:02.884Z,-2
2019-01-03T02:58:03.687Z,-1.9
2019-01-03T02:59:03.010Z,-1.9
2019-01-03T03:00:03.271Z,-1.9
2019-01-03T03:01:02.918Z,-1.9
2019-01-03T03:02:03.639Z,-1.9
2019-01-03T03:03:04.926Z,0
2019-01-03T03:04:03.592Z,-1.9
2019-01-03T03:06:03.727Z,-1.9
2019-01-03T03:07:03.231Z,-1.9
2019-01-03T03:08:02.110Z,-1.8
2019-01-03T03:09:03.320Z,-1.8
2019-01-03T03:10:03.514Z,-1.8
2019-01-03T03:11:03.473Z,-1.8
2019-01-03T03:12:03.675Z,-1.8
2019-01-03T03:13:04.879Z,-1.8
2019-01-03T03:14:03.207Z,-1.8
2019-01-03T03:15:03.308Z,-1.8
2019-01-03T03:16:03.348Z,-1.8
2019-01-03T03:17:03.857Z,-1.8
2019-01-03T03:18:03.828Z,-1.8
2019-01-03T03:19:05.118Z,-1.8
2019-01-03T03:20:03.827Z,-1.8
2019-01-03T03:21:03.480Z,-1.9
2019-01-03T03:22:03.955Z,-1.8
2019-01-03T03:23:03.799Z,-1.8
2019-01-03T03:24:03.930Z,-1.8
2019-01-03T03:25:03.808Z,-1.8
2019-01-03T03:26:03.471Z,-1.8
2019-01-03T03:27:04.696Z,-1.8
2019-01-03T03:29:02.887Z,-1.9
2019-01-03T03:30:03.595Z,-1.9
2019-01-03T03:31:04.365Z,-1.9
2019-01-03T03:32:04.850Z,-1.9
2019-01-03T03:33:09.271Z,-1.9
2019-01-03T03:34:03.503Z,-1.9
2019-01-03T03:35:04.092Z,-1.8
2019-01-03T03:36:03.580Z,-1.9
2019-01-03T03:37:03.274Z,-1.9
2019-01-03T03:38:03.418Z,-1.9
2019-01-03T03:39:03.370Z,-1.9
2019-01-03T03:40:04.033Z,-1.8
2019-01-03T03:41:03.525Z,-1.8
2019-01-03T03:42:02.910Z,-1.9
2019-01-03T03:43:03.108Z,-1.9
2019-01-03T03:44:04.252Z,-1.9
2019-01-03T03:45:02.949Z,-1.9
2019-01-03T03:46:03.139Z,-1.9
2019-01-03T03:47:03.412Z,-1.9
2019-01-03T03:48:03.214Z,-1.9
2019-01-03T03:50:03.070Z,-2
2019-01-03T03:51:02.746Z,-2
2019-01-03T03:52:02.426Z,-2
2019-01-03T03:53:03.361Z,-2
2019-01-03T03:54:03.871Z,-2.1
2019-01-03T03:55:03.674Z,-2.1
2019-01-03T03:56:03.923Z,-2.1
2019-01-03T03:57:03.793Z,-2.1
2019-01-03T03:58:03.436Z,-2.1
2019-01-03T03:59:03.200Z,-2.1
2019-01-03T04:00:03.376Z,-2.1
2019-01-03T04:01:02.879Z,-2.1
2019-01-03T04:02:03.082Z,-2.1
2019-01-03T04:03:02.721Z,-2.1
2019-01-03T04:04:03.044Z,-2.1
2019-01-03T04:05:03.766Z,-2.1
2019-01-03T04:06:03.042Z,-2.1
2019-01-03T04:07:03.588Z,-2.1
2019-01-03T04:08:03.457Z,-2.1
2019-01-03T04:09:03.193Z,-2.1
2019-01-03T04:10:03.783Z,-2.1
2019-01-03T04:11:03.364Z,-2.1
2019-01-03T04:12:03.052Z,-2.1
2019-01-03T04:13:03.649Z,-2.1
2019-01-03T04:14:02.183Z,-2.1
2019-01-03T04:15:03.013Z,-2.1
2019-01-03T04:16:02.843Z,-2.2
2019-01-03T04:17:03.783Z,-2.3
2019-01-03T04:18:03.049Z,-2.3
2019-01-03T04:19:03.619Z,-2.3
2019-01-03T04:20:02.914Z,-2.3
2019-01-03T04:21:03.873Z,-2.2
2019-01-03T04:22:03.368Z,-2.2
2019-01-03T04:23:03.153Z,-2.2
2019-01-03T04:24:03.137Z,-2.2
2019-01-03T04:25:03.029Z,-2.2
2019-01-03T04:26:03.312Z,-2.3
2019-01-03T04:27:02.960Z,-2.3
2019-01-03T04:28:03.209Z,-2.2
2019-01-03T04:29:03.781Z,-2.2
2019-01-03T04:30:03.075Z,-2.1
2019-01-03T04:31:02.847Z,-2.1
2019-01-03T04:32:03.068Z,-2.1
2019-01-03T04:33:03.222Z,-2.1
2019-01-03T04:34:03.162Z,-2.2
2019-01-03T04:35:03.956Z,-2.2
2019-01-03T04:36:04.423Z,-2.2
2019-01-03T04:37:04.107Z,-2.3
2019-01-03T04:38:02.995Z,-2.2
2019-01-03T04:39:03.111Z,-2.3
2019-01-03T04:40:03.299Z,-2.3
2019-01-03T04:41:03.288Z,-2.3
2019-01-03T04:42:01.669Z,-2.3
2019-01-03T04:43:03.573Z,-2.3
2019-01-03T04:44:03.519Z,-2.4
2019-01-03T04:45:03.402Z,-2.4
2019-01-03T04:46:03.915Z,-2.4
2019-01-03T04:47:04.477Z,-2.4
2019-01-03T04:48:03.446Z,-2.3
2019-01-03T04:49:02.234Z,-2.3
2019-01-03T04:50:03.612Z,-2.3
2019-01-03T04:51:03.552Z,-2.4
2019-01-03T04:52:03.585Z,-2.4
2019-01-03T04:53:03.466Z,-2.4
2019-01-03T04:54:03.508Z,-2.4
2019-01-03T04:55:03.867Z,-2.4
2019-01-03T04:56:03.753Z,-2.4
2019-01-03T04:57:03.080Z,-2.6
2019-01-03T04:58:03.572Z,-2.5
2019-01-03T04:59:03.729Z,-2.5
2019-01-03T05:00:03.579Z,-2.5
2019-01-03T05:01:03.510Z,-2.5
2019-01-03T05:02:03.501Z,-2.5
2019-01-03T05:03:03.136Z,-2.5
2019-01-03T05:04:02.850Z,-2.5
2019-01-03T05:05:03.271Z,-2.4
2019-01-03T05:06:02.774Z,-2.4
2019-01-03T05:07:03.665Z,-2.4
2019-01-03T05:08:03.724Z,-2.3
2019-01-03T05:09:03.898Z,-2.3
2019-01-03T05:10:03.276Z,-2.3
2019-01-03T05:11:02.987Z,-2.3
2019-01-03T05:12:03.647Z,-2.3
2019-01-03T05:13:03.112Z,-2.3
2019-01-03T05:14:04.911Z,-2.3
2019-01-03T05:15:03.555Z,-2.3
2019-01-03T05:16:03.458Z,-2.3
2019-01-03T05:17:03.074Z,-2.3
2019-01-03T05:18:03.445Z,-2.3
2019-01-03T05:19:02.989Z,-2.3
2019-01-03T05:20:03.409Z,-2.3
2019-01-03T05:21:03.772Z,-2.2
2019-01-03T05:22:03.243Z,-2.2
2019-01-03T05:23:03.070Z,-2.2
2019-01-03T05:24:03.709Z,-2.2
2019-01-03T05:25:03.206Z,-2.2
2019-01-03T05:27:03.376Z,-2.1
2019-01-03T05:28:01.921Z,-2.2
2019-01-03T05:29:02.162Z,-2.2
2019-01-03T05:30:02.188Z,-2.3
2019-01-03T05:31:03.039Z,-2.2
2019-01-03T05:32:02.880Z,-2.3
2019-01-03T05:33:03.342Z,-2.2
2019-01-03T05:34:02.981Z,-2.2
2019-01-03T05:35:03.173Z,-2.2
2019-01-03T05:36:03.880Z,-2.2
2019-01-03T05:37:02.878Z,-2.1
2019-01-03T05:38:03.625Z,-2.2
2019-01-03T05:39:03.911Z,-2.2
2019-01-03T05:40:03.887Z,-2.2
2019-01-03T05:41:05.313Z,-2.1
2019-01-03T05:42:03.293Z,-2.2
2019-01-03T05:43:03.737Z,-2.2
2019-01-03T05:44:02.975Z,-2.2
2019-01-03T05:45:05.188Z,-2.2
2019-01-03T05:46:03.190Z,-2.2
2019-01-03T05:47:03.223Z,-2.2
2019-01-03T05:48:03.473Z,-2.2
2019-01-03T05:49:03.379Z,-2.1
2019-01-03T05:50:03.710Z,-2.2
2019-01-03T05:51:03.470Z,-2.2
2019-01-03T05:52:03.273Z,-2.2
2019-01-03T05:53:03.148Z,-2.1
2019-01-03T05:54:03.107Z,-2.1
2019-01-03T05:55:03.668Z,-2.1
2019-01-03T05:56:02.952Z,-2.1
2019-01-03T05:57:04.377Z,-2.1
2019-01-03T05:58:03.119Z,-2.1
2019-01-03T05:59:03.793Z,-2.1
2019-01-03T06:00:03.101Z,-2.2
2019-01-03T06:01:02.611Z,-2.1
2019-01-03T06:02:03.409Z,-2.1
2019-01-03T06:03:03.585Z,-2.1
2019-01-03T06:04:02.969Z,-2.1
2019-01-03T06:05:03.094Z,-2.1
2019-01-03T06:06:03.185Z,-2.1
2019-01-03T06:07:03.310Z,-2.2
2019-01-03T06:08:03.512Z,-2.1
2019-01-03T06:09:03.279Z,-2.1
2019-01-03T06:10:03.073Z,-2.1
2019-01-03T06:11:03.580Z,-2.2
2019-01-03T06:12:03.963Z,-2.1
2019-01-03T06:13:03.510Z,-2.1
2019-01-03T06:14:02.872Z,-2.1
2019-01-03T06:15:04.247Z,-2.1
2019-01-03T06:16:03.228Z,-2.1
2019-01-03T06:17:04.491Z,-2.1
2019-01-03T06:18:03.810Z,-2.1
2019-01-03T06:19:03.334Z,-2.1
2019-01-03T06:20:03.390Z,-2.1
2019-01-03T06:21:04.104Z,-2.1
2019-01-03T06:22:03.984Z,-2.2
2019-01-03T06:23:01.932Z,-2.1
2019-01-03T06:24:04.771Z,-2.1
2019-01-03T06:25:03.643Z,-2.1
2019-01-03T06:26:02.751Z,-2.1
2019-01-03T06:27:03.150Z,-2.1
2019-01-03T06:28:03.485Z,-2.1
2019-01-03T06:29:02.825Z,-2.2
2019-01-03T06:30:03.207Z,-2.2
2019-01-03T06:31:02.889Z,-2.2
2019-01-03T06:32:02.960Z,-2.2
2019-01-03T06:34:02.896Z,-2.3
2019-01-03T06:35:02.979Z,-2.3
2019-01-03T06:36:02.499Z,-2.3
2019-01-03T06:37:01.950Z,-2.3
2019-01-03T06:38:03.627Z,-2.4
2019-01-03T06:40:02.955Z,-2.4
2019-01-03T06:41:03.242Z,-2.4
2019-01-03T06:42:03.537Z,-2.4
2019-01-03T06:43:03.437Z,-2.4
2019-01-03T06:44:02.909Z,-2.4
2019-01-03T06:45:03.814Z,-2.4
2019-01-03T06:46:02.721Z,-2.4
2019-01-03T06:47:02.984Z,-2.4
2019-01-03T06:48:03.542Z,-2.4
2019-01-03T06:49:03.376Z,-2.4
2019-01-03T06:50:03.642Z,-2.4
2019-01-03T06:51:03.519Z,-2.4
2019-01-03T06:52:03.366Z,-2.4
2019-01-03T06:53:02.975Z,-2.4
2019-01-03T06:54:03.622Z,-2.5
2019-01-03T06:55:03.348Z,-2.5
2019-01-03T06:56:03.296Z,-2.6
2019-01-03T06:57:03.220Z,-2.6
2019-01-03T06:58:03.828Z,-2.6
2019-01-03T06:59:03.130Z,-2.6
2019-01-03T07:00:03.082Z,-2.6
2019-01-03T07:01:03.920Z,-2.6
2019-01-03T07:02:02.858Z,-2.6
2019-01-03T07:03:03.144Z,-2.6
2019-01-03T07:04:02.742Z,-2.6
2019-01-03T07:06:03.548Z,-2.7
2019-01-03T07:07:01.916Z,-2.6
2019-01-03T07:08:03.054Z,-2.6
2019-01-03T07:09:03.268Z,-2.7
2019-01-03T07:10:03.541Z,-2.7
2019-01-03T07:11:03.338Z,-2.7
2019-01-03T07:12:03.627Z,-2.7
2019-01-03T07:14:03.183Z,-2.7
2019-01-03T07:15:03.785Z,-2.7
2019-01-03T07:16:03.439Z,-2.6
2019-01-03T07:17:03.374Z,-2.6
2019-01-03T07:18:02.828Z,-2.6
2019-01-03T07:19:03.448Z,-2.6
2019-01-03T07:20:03.278Z,-2.6
2019-01-03T07:21:03.483Z,-2.6
2019-01-03T07:22:03.223Z,-2.6
2019-01-03T07:23:03.889Z,-2.6
2019-01-03T07:24:03.381Z,-2.6
2019-01-03T07:26:01.967Z,-2.4
2019-01-03T07:27:03.507Z,-2.3
2019-01-03T07:28:03.219Z,-2.3
2019-01-03T07:29:02.707Z,-2.3
2019-01-03T07:30:03.058Z,-2.3
2019-01-03T07:31:04.008Z,-2.3
2019-01-03T07:32:03.299Z,-2.3
2019-01-03T07:33:06.663Z,-2.3
2019-01-03T07:34:03.654Z,-2.3
2019-01-03T07:35:02.012Z,-2.3
2019-01-03T07:36:02.485Z,-2.2
2019-01-03T07:37:03.633Z,-2.3
2019-01-03T07:38:02.996Z,-2.2
2019-01-03T07:39:02.952Z,-2.2
2019-01-03T07:40:03.283Z,-2.3
2019-01-03T07:41:03.879Z,-2.3
2019-01-03T07:42:03.172Z,-2.3
2019-01-03T07:43:03.534Z,-2.2
2019-01-03T07:44:03.345Z,-2.2
2019-01-03T07:45:03.434Z,-2.2
2019-01-03T07:46:02.938Z,-2.2
2019-01-03T07:47:03.425Z,-2.2
2019-01-03T07:48:04.047Z,-2.2
2019-01-03T07:49:03.507Z,-2.2
2019-01-03T07:50:02.913Z,-2.2
2019-01-03T07:51:02.956Z,-2.2
2019-01-03T07:52:03.660Z,-2.2
2019-01-03T07:53:03.203Z,-2.2
2019-01-03T07:54:02.640Z,-2.3
2019-01-03T07:55:03.333Z,-2.3
2019-01-03T07:56:03.408Z,-2.2
2019-01-03T07:57:03.280Z,-2.3
2019-01-03T07:58:03.599Z,-2.2
2019-01-03T07:59:03.258Z,-2.2
2019-01-03T08:00:04.153Z,-2.2
2019-01-03T08:01:03.046Z,-2.2
2019-01-03T08:02:03.029Z,-2.2
2019-01-03T08:03:03.617Z,-2.2
2019-01-03T08:04:03.749Z,-2.2
2019-01-03T08:05:02.880Z,-2.1
2019-01-03T08:06:03.772Z,-2.1
2019-01-03T08:07:03.252Z,-2.1
2019-01-03T08:08:03.638Z,-2.1
2019-01-03T08:09:03.435Z,-2
2019-01-03T08:10:05.926Z,-2
2019-01-03T08:11:03.310Z,-2
2019-01-03T08:12:03.850Z,-1.9
2019-01-03T08:14:03.771Z,-1.9
2019-01-03T08:15:03.506Z,-2.1
2019-01-03T08:16:03.212Z,-2
2019-01-03T08:17:02.927Z,-2
2019-01-03T08:18:03.294Z,-1.9
2019-01-03T08:19:02.923Z,-1.9
2019-01-03T08:20:03.702Z,-1.9
2019-01-03T08:21:03.170Z,-1.9
2019-01-03T08:22:02.835Z,-1.9
2019-01-03T08:23:02.899Z,-1.9
2019-01-03T08:24:03.318Z,-1.8
2019-01-03T08:25:03.411Z,-1.8
2019-01-03T08:26:03.788Z,-1.7
2019-01-03T08:27:02.827Z,-1.8
2019-01-03T08:28:02.995Z,-1.8
2019-01-03T08:29:03.238Z,-1.8
2019-01-03T08:30:03.670Z,-1.8
2019-01-03T08:31:02.856Z,-1.7
2019-01-03T08:32:03.512Z,-1.6
2019-01-03T08:33:03.735Z,-1.6
2019-01-03T08:34:03.243Z,-1.5
2019-01-03T08:35:04.246Z,-1.5
2019-01-03T08:36:02.965Z,-1.5
2019-01-03T08:37:03.826Z,-1.4
2019-01-03T08:38:03.318Z,-1.3
2019-01-03T08:39:03.452Z,-1.1
2019-01-03T08:40:08.257Z,-1.1
2019-01-03T08:41:03.211Z,-1.1
2019-01-03T08:43:04.333Z,-0.9
2019-01-03T08:45:03.599Z,-0.8
2019-01-03T08:46:03.357Z,-0.8
2019-01-03T08:47:02.774Z,-0.8
2019-01-03T08:48:03.138Z,-0.7
2019-01-03T08:49:03.823Z,-0.7
2019-01-03T08:50:03.723Z,-0.9
2019-01-03T08:51:03.406Z,-0.8
2019-01-03T08:52:03.195Z,-0.9
2019-01-03T08:54:03.361Z,-0.8
2019-01-03T08:55:03.701Z,-0.8
2019-01-03T08:56:03.176Z,-0.8
2019-01-03T08:57:02.993Z,-0.7
2019-01-03T08:58:02.933Z,-0.7
2019-01-03T08:59:02.324Z,-0.7
2019-01-03T09:00:03.974Z,-0.7
2019-01-03T09:01:03.283Z,-0.7
2019-01-03T09:02:03.373Z,-0.7
2019-01-03T09:03:03.202Z,-0.5
2019-01-03T09:04:02.901Z,-0.5
2019-01-03T09:05:02.610Z,-0.6
2019-01-03T09:06:03.588Z,-0.6
2019-01-03T09:07:01.799Z,-0.3
2019-01-03T09:08:07.791Z,-0.3
2019-01-03T09:09:03.803Z,-0.3
2019-01-03T09:11:03.804Z,-0.1
2019-01-03T09:12:03.213Z,-0.3
2019-01-03T09:13:02.265Z,-0.3
2019-01-03T09:14:03.269Z,-0.4
2019-01-03T09:15:03.116Z,-0.4
2019-01-03T09:16:06.451Z,-0.4
2019-01-03T09:17:03.468Z,-0.1
2019-01-03T09:18:03.078Z,0.1
2019-01-03T09:19:02.992Z,0.1
2019-01-03T09:20:03.378Z,-0.1
2019-01-03T09:21:02.673Z,-0.2
2019-01-03T09:22:03.166Z,-0.3
2019-01-03T09:23:03.113Z,-0.3
2019-01-03T09:24:03.419Z,-0.4
2019-01-03T09:25:03.392Z,-0.6
2019-01-03T09:26:03.477Z,-0.6
2019-01-03T09:27:03.502Z,-0.5
2019-01-03T09:28:03.319Z,-0.2
2019-01-03T09:29:03.241Z,0.1
2019-01-03T09:30:03.434Z,0.2
2019-01-03T09:31:03.139Z,0.3
2019-01-03T09:32:03.723Z,0.4
2019-01-03T09:33:03.518Z,0.4
2019-01-03T09:34:02.966Z,0.3
2019-01-03T09:35:03.664Z,-0.1
2019-01-03T09:36:03.157Z,-0.3
2019-01-03T09:37:03.144Z,-0.3
2019-01-03T09:38:03.219Z,-0.4
2019-01-03T09:39:03.860Z,-0.4
2019-01-03T09:40:03.550Z,-0.5
2019-01-03T09:41:03.134Z,-0.6
2019-01-03T09:42:03.540Z,-0.4
2019-01-03T09:44:03.432Z,0
2019-01-03T09:45:01.767Z,0.3
2019-01-03T09:46:03.806Z,0.3
2019-01-03T09:47:03.787Z,0.3
2019-01-03T09:48:03.113Z,0.3
2019-01-03T09:49:02.366Z,0.2
2019-01-03T09:50:03.321Z,-0.1
2019-01-03T09:51:02.650Z,-0.2
2019-01-03T09:52:02.824Z,-0.1
2019-01-03T09:53:02.814Z,-0.1
2019-01-03T09:54:03.355Z,0
2019-01-03T09:55:03.211Z,0.3
2019-01-03T09:56:03.589Z,0.6
2019-01-03T09:57:03.132Z,0.6
2019-01-03T09:58:02.920Z,0.4
2019-01-03T09:59:03.409Z,0.4
2019-01-03T10:00:03.678Z,0.2
2019-01-03T10:01:03.583Z,0.2
2019-01-03T10:02:03.042Z,0.3
2019-01-03T10:03:03.594Z,0.4
2019-01-03T10:04:02.887Z,0.4
2019-01-03T10:05:03.165Z,0.4
2019-01-03T10:06:03.779Z,0.5
2019-01-03T10:07:03.700Z,0.4
2019-01-03T10:08:02.874Z,0.4
2019-01-03T10:09:03.031Z,0.2
2019-01-03T10:10:02.995Z,0.1
2019-01-03T10:11:02.993Z,0.1
2019-01-03T10:12:03.002Z,-0.1
2019-01-03T10:13:03.632Z,-0.1
2019-01-03T10:14:03.582Z,-0.2
2019-01-03T10:15:03.525Z,-0.3
2019-01-03T10:16:03.369Z,-0.4
2019-01-03T10:17:03.818Z,-0.4
2019-01-03T10:18:03.382Z,-0.4
2019-01-03T10:19:03.448Z,-0.3
2019-01-03T10:20:03.059Z,-0.4
2019-01-03T10:21:03.388Z,-0.3
2019-01-03T10:22:02.826Z,-0.3
2019-01-03T10:23:03.301Z,-0.3
2019-01-03T10:24:03.565Z,-0.3
2019-01-03T10:25:03.329Z,-0.3
2019-01-03T10:26:03.041Z,0.1
2019-01-03T10:28:04.125Z,0.2
2019-01-03T10:29:02.985Z,0.5
2019-01-03T10:30:03.630Z,0.5
2019-01-03T10:31:02.434Z,0.6
2019-01-03T10:32:03.741Z,0.8
2019-01-03T10:33:02.992Z,0.9
2019-01-03T10:34:02.894Z,0.9
2019-01-03T10:35:03.521Z,0.9
2019-01-03T10:36:03.342Z,0.9
2019-01-03T10:37:03.022Z,0.9
2019-01-03T10:38:03.396Z,1.1
2019-01-03T10:39:03.562Z,1
2019-01-03T10:40:03.408Z,1
2019-01-03T10:41:03.184Z,1
2019-01-03T10:42:03.418Z,1
2019-01-03T10:43:03.168Z,1.6
2019-01-03T10:44:02.881Z,1.8
2019-01-03T10:45:03.609Z,2.1
2019-01-03T10:46:03.002Z,2.1
2019-01-03T10:47:03.136Z,2.3
2019-01-03T10:48:03.612Z,2
2019-01-03T10:49:03.394Z,1.8
2019-01-03T10:50:03.192Z,1.8
2019-01-03T10:51:02.378Z,1.6
2019-01-03T10:52:02.384Z,1.5
2019-01-03T10:53:02.245Z,1.3
2019-01-03T10:54:02.368Z,1.4
2019-01-03T10:55:03.880Z,1.4
2019-01-03T10:56:03.164Z,1.4
2019-01-03T10:57:03.503Z,1.4
2019-01-03T10:58:03.242Z,1.4
2019-01-03T10:59:03.702Z,1.4
2019-01-03T11:00:04.229Z,1.4
2019-01-03T11:01:03.581Z,1.5
2019-01-03T11:02:03.199Z,1.6
2019-01-03T11:03:02.865Z,1.6
2019-01-03T11:04:03.633Z,1.6
2019-01-03T11:05:03.450Z,1.6
2019-01-03T11:06:03.523Z,1.6
2019-01-03T11:07:02.998Z,1.4
2019-01-03T11:08:03.296Z,1.4
2019-01-03T11:09:03.800Z,1.4
2019-01-03T11:10:03.480Z,1.4
2019-01-03T11:11:02.994Z,1.4
2019-01-03T11:12:03.594Z,1.4
2019-01-03T11:13:03.395Z,1.3
2019-01-03T11:14:02.912Z,1.3
2019-01-03T11:15:03.319Z,1.3
2019-01-03T11:16:04.577Z,1.1
2019-01-03T11:17:03.574Z,1.2
2019-01-03T11:18:03.137Z,1.1
2019-01-03T11:19:02.809Z,1.1
2019-01-03T11:20:03.722Z,1.2
2019-01-03T11:21:02.959Z,1.1
2019-01-03T11:22:02.791Z,0.9
2019-01-03T11:23:03.852Z,0.8
2019-01-03T11:24:03.418Z,0.8
2019-01-03T11:25:03.498Z,0.9
2019-01-03T11:26:02.726Z,0.8
2019-01-03T11:27:03.848Z,0.8
2019-01-03T11:28:03.013Z,0.8
2019-01-03T11:29:03.227Z,0.8
2019-01-03T11:30:03.835Z,0.8
2019-01-03T11:31:03.545Z,0.9
2019-01-03T11:32:04.854Z,0.9
2019-01-03T11:33:03.908Z,0.7
2019-01-03T11:35:04.413Z,0.8
2019-01-03T11:36:03.748Z,0.8
2019-01-03T11:37:03.549Z,0.5
2019-01-03T11:38:02.970Z,0.5
2019-01-03T11:39:03.446Z,0.5
2019-01-03T11:40:03.276Z,0.5
2019-01-03T11:41:02.870Z,0.4
2019-01-03T11:42:03.257Z,0.4
2019-01-03T11:43:03.283Z,0.4
2019-01-03T11:44:03.393Z,0.4
2019-01-03T11:45:03.373Z,0.4
2019-01-03T11:46:02.993Z,0.4
2019-01-03T11:47:02.932Z,0.6
2019-01-03T11:48:03.531Z,0.6
2019-01-03T11:49:03.680Z,0.5
2019-01-03T11:50:03.306Z,0.5
2019-01-03T11:51:03.010Z,0.6
2019-01-03T11:52:03.748Z,0.6
2019-01-03T11:53:03.572Z,0.6
2019-01-03T11:54:03.242Z,0.6
2019-01-03T11:55:04.534Z,0.5
2019-01-03T11:57:03.592Z,0.6
2019-01-03T11:58:03.111Z,0.6
2019-01-03T12:00:03.595Z,0.5
2019-01-03T12:01:03.444Z,0.4
2019-01-03T12:02:03.803Z,0.4
2019-01-03T12:03:03.006Z,0.4
2019-01-03T12:04:03.132Z,0.4
2019-01-03T12:05:04.087Z,0.4
2019-01-03T12:06:04.314Z,0.3
2019-01-03T12:07:02.952Z,0.3
2019-01-03T12:08:02.799Z,0.4
2019-01-03T12:09:03.091Z,0.3
2019-01-03T12:10:02.866Z,0.4
2019-01-03T12:11:03.411Z,0.4
2019-01-03T12:12:03.012Z,0.4
2019-01-03T12:13:03.305Z,0.4
2019-01-03T12:14:02.736Z,0.6
2019-01-03T12:15:03.975Z,0.5
2019-01-03T12:16:06.928Z,0.5
2019-01-03T12:17:02.797Z,0.4
2019-01-03T12:18:03.195Z,0.4
2019-01-03T12:19:03.177Z,0.5
2019-01-03T12:21:03.441Z,0.5
2019-01-03T12:22:03.301Z,0.5
2019-01-03T12:23:03.097Z,0.5
2019-01-03T12:24:02.852Z,0.6
2019-01-03T12:25:03.956Z,0.4
2019-01-03T12:26:03.208Z,0.4
2019-01-03T12:27:03.520Z,0.5
2019-01-03T12:28:03.159Z,0.5
2019-01-03T12:29:03.171Z,0.4
2019-01-03T12:30:02.905Z,0.4
2019-01-03T12:31:02.922Z,0.5
2019-01-03T12:32:02.853Z,0.5
2019-01-03T12:33:04.475Z,0.4
2019-01-03T12:34:03.104Z,0.4
2019-01-03T12:35:03.767Z,0.4
2019-01-03T12:36:02.945Z,0.4
2019-01-03T12:37:03.388Z,0.4
2019-01-03T12:38:02.984Z,0.4
2019-01-03T12:39:03.075Z,0.4
2019-01-03T12:40:03.537Z,0.4
2019-01-03T12:41:03.129Z,0.4
2019-01-03T12:42:05.720Z,0.4
2019-01-03T12:43:02.958Z,0.3
2019-01-03T12:44:03.081Z,0.3
2019-01-03T12:45:03.568Z,0.3
2019-01-03T12:46:03.349Z,0.3
2019-01-03T12:47:03.727Z,0.3
2019-01-03T12:48:03.418Z,0.4
2019-01-03T12:49:03.488Z,0.4
2019-01-03T12:50:03.868Z,0.5
2019-01-03T12:51:03.469Z,0.4
2019-01-03T12:52:03.725Z,0.4
2019-01-03T12:53:03.272Z,0.4
2019-01-03T12:54:03.021Z,0.4
2019-01-03T12:55:03.289Z,0.4
2019-01-03T12:56:03.871Z,0.4
2019-01-03T12:57:04.698Z,0.4
2019-01-03T12:58:03.137Z,0.4
2019-01-03T12:59:03.597Z,0.3
2019-01-03T13:00:03.806Z,0.3
2019-01-03T13:02:03.869Z,0.3
2019-01-03T13:03:03.767Z,0.3
2019-01-03T13:04:02.474Z,0.4
2019-01-03T13:05:03.109Z,0.3
2019-01-03T13:06:02.024Z,0.3
2019-01-03T13:07:03.759Z,0.1
2019-01-03T13:08:02.912Z,0.1
2019-01-03T13:09:03.636Z,0.1
2019-01-03T13:10:03.132Z,0.2
2019-01-03T13:11:03.266Z,0.2
2019-01-03T13:12:03.578Z,0.1
2019-01-03T13:13:03.203Z,0.1
2019-01-03T13:14:03.715Z,0.2
2019-01-03T13:15:03.035Z,0.3
2019-01-03T13:16:03.861Z,0.3
2019-01-03T13:17:03.548Z,0.3
2019-01-03T13:18:03.661Z,0.3
2019-01-03T13:19:03.163Z,0.1
2019-01-03T13:20:03.905Z,0.1
2019-01-03T13:21:03.059Z,0.1
2019-01-03T13:22:03.743Z,-0.1
2019-01-03T13:23:03.338Z,-0.3
2019-01-03T13:24:03.543Z,-0.3
2019-01-03T13:25:02.750Z,-0.3
2019-01-03T13:26:02.701Z,-0.3
2019-01-03T13:27:03.605Z,-0.3
2019-01-03T13:28:01.896Z,-0.3
2019-01-03T13:29:03.388Z,-0.3
2019-01-03T13:30:03.243Z,-0.3
2019-01-03T13:31:03.371Z,-0.3
2019-01-03T13:32:02.934Z,-0.3
2019-01-03T13:33:03.042Z,-0.3
2019-01-03T13:34:03.399Z,-0.3
2019-01-03T13:35:03.540Z,-0.2
2019-01-03T13:36:03.631Z,-0.3
2019-01-03T13:37:03.394Z,-0.3
2019-01-03T13:38:04.090Z,-0.2
2019-01-03T13:39:03.146Z,-0.2
2019-01-03T13:40:03.670Z,-0.2
2019-01-03T13:41:03.405Z,-0.3
2019-01-03T13:42:03.019Z,-0.3
2019-01-03T13:43:02.783Z,-0.3
2019-01-03T13:44:03.687Z,-0.3
2019-01-03T13:45:03.837Z,-0.3
2019-01-03T13:46:03.207Z,-0.3
2019-01-03T13:47:03.287Z,-0.4
2019-01-03T13:48:01.889Z,-0.4
2019-01-03T13:49:03.491Z,-0.4